Time;durP1;ratioP1;P1;durP2;ratioP2;P2;SDS_P1;SDS_P2;PMS_P1;PMS_P2;Temp;Humidity;BMP_temperature;BMP_pressure;BME280_temperature;BME280_humidity;BME280_pressure;Samples;Min_cycle;Max_cycle;Signal;HPM_P1;HPM_P2
2022/01/02 00:00:22;;;;;;;32.57;27.50;;;;;;;;;;4997824;28;20029;-65
2022/01/02 00:02:53;;;;;;;32.83;27.13;;;;;;;;;;5011224;28;20093;-65
2022/01/02 00:05:22;;;;;;;37.03;27.67;;;;;;;;;;5000887;28;20546;-65
2022/01/02 00:07:51;;;;;;;35.13;27.97;;;;;;;;;;5014511;28;20026;-64
2022/01/02 00:10:21;;;;;;;31.57;27.33;;;;;;;;;;5014451;28;20049;-65
2022/01/02 00:12:52;;;;;;;34.87;27.50;;;;;;;;;;5006354;28;20033;-65
2022/01/02 00:15:20;;;;;;;32.87;28.40;;;;;;;;;;5014001;28;20021;-65
2022/01/02 00:17:48;;;;;;;37.23;29.07;;;;;;;;;;5014715;28;20022;-65
2022/01/02 00:20:14;;;;;;;36.67;30.63;;;;;;;;;;5014133;28;20476;-65
2022/01/02 00:22:42;;;;;;;39.27;30.50;;;;;;;;;;5015811;28;20033;-65
2022/01/02 00:25:22;;;;;;;45.37;34.30;;;;;;;;;;5013729;28;20022;-65
2022/01/02 00:27:50;;;;;;;38.80;31.83;;;;;;;;;;5014487;28;20072;-65
2022/01/02 00:30:17;;;;;;;39.33;32.43;;;;;;;;;;5015158;28;20045;-65
2022/01/02 00:32:43;;;;;;;41.60;32.80;;;;;;;;;;5034283;28;20585;-65
2022/01/02 00:35:09;;;;;;;47.97;34.07;;;;;;;;;;5023067;28;20024;-65
2022/01/02 00:37:35;;;;;;;46.83;36.30;;;;;;;;;;5014098;28;20105;-65
2022/01/02 00:40:03;;;;;;;47.00;36.60;;;;;;;;;;4995948;28;20017;-65
2022/01/02 00:45:35;;;;;;;55.00;39.70;;;;;;;;;;5006292;28;20048;-64
2022/01/02 00:48:01;;;;;;;60.83;45.00;;;;;;;;;;5013846;28;20388;-64
2022/01/02 00:50:37;;;;;;;68.80;47.87;;;;;;;;;;5014183;28;20080;-65
2022/01/02 00:53:04;;;;;;;69.53;49.03;;;;;;;;;;5030488;28;20034;-65
2022/01/02 00:55:32;;;;;;;64.83;46.17;;;;;;;;;;5013487;28;20053;-65
2022/01/02 00:58:00;;;;;;;69.67;48.53;;;;;;;;;;5014229;28;20117;-65
2022/01/02 01:00:26;;;;;;;70.87;49.37;;;;;;;;;;5012522;28;20472;-65
2022/01/02 01:02:53;;;;;;;74.77;53.17;;;;;;;;;;5014085;28;20178;-65
2022/01/02 01:05:22;;;;;;;80.33;56.67;;;;;;;;;;4993489;28;20057;-65
2022/01/02 01:08:02;;;;;;;81.93;55.63;;;;;;;;;;5010672;28;20049;-65
2022/01/02 01:10:29;;;;;;;76.57;52.90;;;;;;;;;;4964754;28;20523;-65
2022/01/02 01:12:57;;;;;;;82.10;53.83;;;;;;;;;;4974679;28;20472;-65
2022/01/02 01:15:24;;;;;;;69.37;50.23;;;;;;;;;;4972187;28;20511;-65
2022/01/02 01:17:53;;;;;;;50.50;38.93;;;;;;;;;;4993377;28;20033;-65
2022/01/02 01:20:19;;;;;;;47.40;34.13;;;;;;;;;;4977085;28;20038;-65
2022/01/02 01:22:46;;;;;;;38.93;30.03;;;;;;;;;;4973077;28;20031;-65
2022/01/02 01:25:16;;;;;;;30.03;24.70;;;;;;;;;;4972646;28;20031;-65
2022/01/02 01:27:42;;;;;;;28.50;24.27;;;;;;;;;;4966747;28;20180;-65
2022/01/02 01:30:09;;;;;;;29.20;24.23;;;;;;;;;;4973431;28;20090;-65
2022/01/02 01:32:36;;;;;;;25.40;22.10;;;;;;;;;;4974843;28;20358;-65
2022/01/02 01:35:03;;;;;;;29.43;24.37;;;;;;;;;;4973297;28;20034;-65
2022/01/02 01:37:29;;;;;;;31.00;25.90;;;;;;;;;;4972941;28;20077;-65
2022/01/02 01:39:55;;;;;;;26.77;22.77;;;;;;;;;;4973535;28;20042;-65
2022/01/02 01:42:33;;;;;;;31.27;24.33;;;;;;;;;;4969528;28;20027;-65
2022/01/02 01:45:42;;;;;;;29.40;25.30;;;;;;;;;;4967023;28;20033;-65
2022/01/02 01:47:50;;;;;;;30.37;25.27;;;;;;;;;;4961948;28;20031;-65
2022/01/02 01:50:16;;;;;;;31.80;27.43;;;;;;;;;;4970891;28;21026;-65
2022/01/02 01:52:43;;;;;;;33.90;28.43;;;;;;;;;;4974381;28;20027;-65
2022/01/02 01:55:10;;;;;;;48.33;33.97;;;;;;;;;;4972827;28;20041;-65
2022/01/02 01:57:38;;;;;;;42.53;33.40;;;;;;;;;;4965447;28;20484;-65
2022/01/02 02:00:09;;;;;;;50.53;37.00;;;;;;;;;;4973321;28;20038;-65
2022/01/02 02:02:35;;;;;;;55.27;40.60;;;;;;;;;;4973057;28;20030;-65
2022/01/02 02:05:01;;;;;;;58.40;42.70;;;;;;;;;;4973535;28;20055;-65
2022/01/02 02:07:37;;;;;;;58.33;41.90;;;;;;;;;;4973381;28;20039;-65
2022/01/02 02:12:39;;;;;;;62.37;43.43;;;;;;;;;;4995494;28;20037;-65
2022/01/02 02:15:05;;;;;;;57.90;41.27;;;;;;;;;;5012189;28;20057;-65
2022/01/02 02:17:32;;;;;;;54.90;41.90;;;;;;;;;;5009996;28;20506;-65
2022/01/02 02:19:59;;;;;;;57.63;42.20;;;;;;;;;;5013136;28;20500;-65
2022/01/02 02:22:26;;;;;;;60.23;42.93;;;;;;;;;;4986132;28;20364;-65
2022/01/02 02:24:52;;;;;;;56.43;41.90;;;;;;;;;;5012976;28;20033;-65
2022/01/02 02:27:24;;;;;;;55.87;43.00;;;;;;;;;;5013132;28;20021;-65
2022/01/02 02:29:50;;;;;;;56.27;41.20;;;;;;;;;;5012331;28;20042;-65
2022/01/02 02:32:16;;;;;;;57.03;41.80;;;;;;;;;;4994731;28;20026;-65
2022/01/02 02:34:44;;;;;;;58.70;43.20;;;;;;;;;;5012661;28;20038;-65
2022/01/02 02:40:21;;;;;;;58.33;42.97;;;;;;;;;;4999123;28;20026;-65
2022/01/02 02:42:55;;;;;;;59.17;43.90;;;;;;;;;;5012017;28;20426;-65
2022/01/02 02:50:57;;;;;;;67.83;48.80;;;;;;;;;;5015019;28;20087;-65
2022/01/02 02:53:23;;;;;;;71.37;51.33;;;;;;;;;;5016025;28;20101;-65
2022/01/02 02:55:55;;;;;;;74.10;53.43;;;;;;;;;;5018551;28;20049;-65
2022/01/02 03:00:59;;;;;;;80.83;55.63;;;;;;;;;;5016304;28;20541;-65
2022/01/02 03:03:25;;;;;;;82.37;54.53;;;;;;;;;;5018132;28;20032;-65
2022/01/02 03:06:01;;;;;;;90.60;60.50;;;;;;;;;;5015571;28;20101;-65
2022/01/02 03:08:31;;;;;;;90.93;63.47;;;;;;;;;;5015015;28;20046;-65
2022/01/02 03:10:57;;;;;;;93.40;66.83;;;;;;;;;;5018822;28;20360;-65
2022/01/02 03:13:23;;;;;;;91.17;62.37;;;;;;;;;;5034875;28;20391;-65
2022/01/02 03:15:49;;;;;;;84.90;61.20;;;;;;;;;;5014284;28;20026;-65
2022/01/02 03:18:15;;;;;;;82.60;57.83;;;;;;;;;;5015640;28;20125;-65
2022/01/02 03:20:41;;;;;;;77.87;53.67;;;;;;;;;;4997094;28;20061;-65
2022/01/02 03:23:07;;;;;;;58.83;43.27;;;;;;;;;;5024080;28;20030;-65
2022/01/02 03:25:33;;;;;;;55.40;41.07;;;;;;;;;;5015040;28;20415;-65
2022/01/02 03:27:59;;;;;;;48.00;36.20;;;;;;;;;;4997766;28;20018;-65
2022/01/02 03:30:25;;;;;;;42.00;33.40;;;;;;;;;;5015814;28;20060;-65
2022/01/02 03:32:52;;;;;;;40.37;31.60;;;;;;;;;;5003965;28;20023;-65
2022/01/02 03:35:17;;;;;;;40.77;30.23;;;;;;;;;;5015463;28;20032;-65
2022/01/02 03:37:44;;;;;;;38.50;30.97;;;;;;;;;;5014584;28;20025;-65
2022/01/02 03:40:10;;;;;;;39.70;31.20;;;;;;;;;;5015770;28;20032;-65
2022/01/02 03:42:37;;;;;;;41.17;30.97;;;;;;;;;;5014724;28;20025;-65
2022/01/02 03:45:03;;;;;;;39.40;31.40;;;;;;;;;;5015693;28;20037;-65
2022/01/02 03:47:29;;;;;;;38.30;29.40;;;;;;;;;;5014324;28;20022;-65
2022/01/02 03:49:57;;;;;;;37.53;29.33;;;;;;;;;;5015629;28;20109;-65
2022/01/02 03:52:23;;;;;;;39.27;30.63;;;;;;;;;;4994579;28;20045;-65
2022/01/02 03:54:49;;;;;;;40.23;31.97;;;;;;;;;;5005778;28;20126;-65
2022/01/02 03:57:15;;;;;;;42.93;31.77;;;;;;;;;;5010909;28;20517;-64
2022/01/02 03:59:42;;;;;;;39.83;30.90;;;;;;;;;;5002620;28;20019;-65
2022/01/02 04:02:08;;;;;;;38.00;31.00;;;;;;;;;;5011173;28;20057;-65
2022/01/02 04:04:34;;;;;;;37.80;30.23;;;;;;;;;;5014605;28;20379;-65
2022/01/02 04:07:00;;;;;;;38.83;29.53;;;;;;;;;;5013730;28;20112;-65
2022/01/02 04:18:37;;;;;;;35.27;28.00;;;;;;;;;;4999033;28;20049;-65
2022/01/02 04:21:03;;;;;;;33.20;27.93;;;;;;;;;;5014555;28;20775;-65
2022/01/02 04:23:29;;;;;;;34.07;28.23;;;;;;;;;;5010221;28;20030;-64
2022/01/02 04:25:55;;;;;;;36.93;28.17;;;;;;;;;;5014692;28;20037;-64
2022/01/02 04:28:21;;;;;;;36.00;28.50;;;;;;;;;;5013117;28;20368;-64
2022/01/02 04:30:47;;;;;;;36.87;29.73;;;;;;;;;;5014893;28;20080;-64
2022/01/02 04:33:13;;;;;;;38.50;31.03;;;;;;;;;;4996746;28;20085;-64
2022/01/02 04:35:39;;;;;;;39.67;31.60;;;;;;;;;;5014578;28;20404;-64
2022/01/02 04:38:05;;;;;;;41.40;33.70;;;;;;;;;;5013424;28;20033;-64
2022/01/02 04:40:31;;;;;;;50.07;36.30;;;;;;;;;;5013826;28;20033;-64
2022/01/02 04:42:57;;;;;;;52.27;37.30;;;;;;;;;;5014456;28;20535;-64
2022/01/02 04:45:23;;;;;;;53.33;40.17;;;;;;;;;;5013135;28;20045;-64
2022/01/02 04:47:49;;;;;;;56.97;41.13;;;;;;;;;;5013403;28;20041;-65
2022/01/02 04:50:15;;;;;;;57.43;42.33;;;;;;;;;;5020927;28;20037;-64
2022/01/02 04:52:41;;;;;;;61.20;43.43;;;;;;;;;;5023604;28;20037;-64
2022/01/02 04:55:07;;;;;;;58.17;43.80;;;;;;;;;;5013719;28;20157;-65
2022/01/02 04:57:34;;;;;;;58.67;44.50;;;;;;;;;;5013044;28;20037;-65
2022/01/02 05:00:00;;;;;;;60.67;44.97;;;;;;;;;;5026091;28;20025;-64
2022/01/02 05:02:26;;;;;;;59.50;43.97;;;;;;;;;;5025688;28;20076;-64
2022/01/02 05:04:52;;;;;;;58.10;43.67;;;;;;;;;;5014106;28;20030;-64
2022/01/02 05:07:18;;;;;;;60.77;43.83;;;;;;;;;;5011438;28;20068;-64
2022/01/02 05:09:44;;;;;;;56.47;42.27;;;;;;;;;;5010318;28;20050;-64
2022/01/02 05:12:10;;;;;;;57.30;43.03;;;;;;;;;;4997454;28;20436;-64
2022/01/02 05:14:36;;;;;;;61.17;43.57;;;;;;;;;;5013270;28;20518;-65
2022/01/02 05:17:02;;;;;;;56.33;43.50;;;;;;;;;;4995016;28;20030;-65
2022/01/02 05:19:28;;;;;;;72.23;49.70;;;;;;;;;;5011716;28;20084;-65
2022/01/02 05:21:54;;;;;;;74.90;49.63;;;;;;;;;;5009684;28;20021;-65
2022/01/02 05:24:20;;;;;;;77.87;51.70;;;;;;;;;;5013435;28;20387;-65
2022/01/02 05:26:46;;;;;;;79.60;52.20;;;;;;;;;;4995662;28;20057;-65
2022/01/02 05:29:13;;;;;;;77.43;51.30;;;;;;;;;;5011505;28;20045;-65
2022/01/02 05:31:39;;;;;;;81.37;51.60;;;;;;;;;;5017377;28;20468;-65
2022/01/02 05:34:29;;;;;;;78.23;51.43;;;;;;;;;;5012610;28;20033;-65
2022/01/02 05:37:01;;;;;;;84.17;53.77;;;;;;;;;;4994696;28;20061;-65
2022/01/02 05:45:55;;;;;;;90.47;56.90;;;;;;;;;;5003376;28;20151;-65
2022/01/02 05:48:21;;;;;;;88.10;55.63;;;;;;;;;;5010611;28;20029;-65
2022/01/02 05:50:47;;;;;;;89.60;53.87;;;;;;;;;;5021478;28;20373;-65
2022/01/02 05:53:13;;;;;;;100.80;60.23;;;;;;;;;;5013113;28;20041;-65
2022/01/02 05:55:39;;;;;;;110.60;66.33;;;;;;;;;;5012511;28;20030;-65
2022/01/02 05:58:05;;;;;;;114.30;63.80;;;;;;;;;;5012400;28;20497;-65
2022/01/02 06:00:31;;;;;;;105.17;65.43;;;;;;;;;;5012368;28;20499;-65
2022/01/02 06:02:57;;;;;;;112.03;66.70;;;;;;;;;;5027565;28;20018;-65
2022/01/02 06:05:23;;;;;;;105.40;64.47;;;;;;;;;;5012214;28;20022;-65
2022/01/02 06:07:50;;;;;;;111.60;65.50;;;;;;;;;;5012937;28;20467;-65
2022/01/02 06:10:16;;;;;;;108.77;64.03;;;;;;;;;;5017669;28;20045;-65
2022/01/02 06:12:42;;;;;;;101.23;61.57;;;;;;;;;;5027727;28;20026;-64
2022/01/02 06:15:17;;;;;;;99.50;60.87;;;;;;;;;;5012162;28;20495;-64
2022/01/02 06:17:43;;;;;;;99.37;61.77;;;;;;;;;;5008000;28;20076;-64
2022/01/02 06:20:10;;;;;;;95.87;60.67;;;;;;;;;;5009812;28;20030;-64
2022/01/02 06:22:36;;;;;;;94.27;59.37;;;;;;;;;;5006940;28;20125;-65
2022/01/02 06:25:02;;;;;;;93.50;56.77;;;;;;;;;;5013494;28;20105;-65
2022/01/02 06:27:28;;;;;;;95.97;59.33;;;;;;;;;;5014289;28;20476;-65
2022/01/02 06:29:54;;;;;;;92.57;57.70;;;;;;;;;;5016603;28;20045;-64
2022/01/02 06:32:20;;;;;;;89.50;55.90;;;;;;;;;;5015484;28;20480;-65
2022/01/02 06:34:46;;;;;;;95.23;57.30;;;;;;;;;;5016402;28;20030;-65
2022/01/02 06:37:12;;;;;;;93.00;57.13;;;;;;;;;;5015985;28;20029;-65
2022/01/02 06:39:38;;;;;;;91.83;56.43;;;;;;;;;;5024272;28;20503;-65
2022/01/02 06:42:05;;;;;;;90.83;55.13;;;;;;;;;;5023204;28;20513;-65
2022/01/02 06:44:31;;;;;;;84.33;54.90;;;;;;;;;;5015456;28;20079;-65
2022/01/02 06:46:57;;;;;;;87.90;54.93;;;;;;;;;;5015700;28;20105;-65
2022/01/02 06:49:23;;;;;;;87.80;56.03;;;;;;;;;;5021519;28;20038;-65
2022/01/02 06:51:49;;;;;;;87.77;54.47;;;;;;;;;;5008948;28;20030;-65
2022/01/02 06:54:15;;;;;;;85.20;54.50;;;;;;;;;;5016012;28;20040;-65
2022/01/02 06:56:41;;;;;;;80.77;50.63;;;;;;;;;;5015545;28;20080;-65
2022/01/02 06:59:07;;;;;;;85.77;52.27;;;;;;;;;;5016375;28;20460;-65
2022/01/02 07:01:33;;;;;;;87.03;53.50;;;;;;;;;;5015422;28;20495;-65
2022/01/02 07:03:59;;;;;;;88.23;53.53;;;;;;;;;;5014849;28;20061;-65
2022/01/02 07:06:25;;;;;;;86.87;55.27;;;;;;;;;;5019750;28;20046;-66
2022/01/02 07:08:51;;;;;;;86.33;52.63;;;;;;;;;;5006444;28;20046;-65
2022/01/02 07:11:18;;;;;;;84.90;53.00;;;;;;;;;;5015608;28;20038;-65
2022/01/02 07:13:44;;;;;;;90.53;54.50;;;;;;;;;;5015707;28;20061;-65
2022/01/02 07:16:10;;;;;;;92.43;53.60;;;;;;;;;;5024762;28;20029;-65
2022/01/02 07:18:36;;;;;;;88.87;52.97;;;;;;;;;;5015814;28;20041;-65
2022/01/02 07:33:36;;;;;;;81.07;50.80;;;;;;;;;;5007044;28;20550;-65
2022/01/02 07:36:03;;;;;;;79.73;51.97;;;;;;;;;;5010405;28;20041;-65
2022/01/02 07:38:29;;;;;;;84.93;53.33;;;;;;;;;;5010922;28;20109;-65
2022/01/02 07:40:55;;;;;;;81.33;53.07;;;;;;;;;;4996377;28;20432;-65
2022/01/02 07:43:21;;;;;;;86.17;53.53;;;;;;;;;;5008226;28;20542;-65
2022/01/02 07:45:47;;;;;;;84.33;54.03;;;;;;;;;;5013597;28;20030;-65
2022/01/02 07:48:13;;;;;;;83.23;53.00;;;;;;;;;;5014719;28;20026;-65
2022/01/02 07:50:39;;;;;;;82.80;53.63;;;;;;;;;;5015041;28;20391;-65
2022/01/02 07:53:05;;;;;;;78.70;51.70;;;;;;;;;;5015246;28;20033;-65
2022/01/02 07:55:31;;;;;;;78.13;52.03;;;;;;;;;;4996277;28;20026;-65
2022/01/02 07:57:57;;;;;;;84.07;52.57;;;;;;;;;;5013892;28;20083;-65
2022/01/02 08:00:23;;;;;;;84.30;53.87;;;;;;;;;;4996070;28;20025;-64
2022/01/02 08:02:49;;;;;;;86.27;54.07;;;;;;;;;;5014745;28;20018;-65
2022/01/02 08:05:16;;;;;;;81.53;53.70;;;;;;;;;;5017782;28;20017;-65
2022/01/02 08:07:42;;;;;;;75.37;50.73;;;;;;;;;;5014397;28;20030;-65
2022/01/02 08:10:09;;;;;;;73.30;50.33;;;;;;;;;;5014916;28;20046;-65
2022/01/02 08:12:35;;;;;;;74.47;50.70;;;;;;;;;;5018854;28;20483;-65
2022/01/02 08:15:01;;;;;;;70.33;48.17;;;;;;;;;;5017124;28;20036;-65
2022/01/02 08:17:27;;;;;;;65.63;46.03;;;;;;;;;;5014319;28;20129;-65
2022/01/02 08:19:53;;;;;;;72.30;48.30;;;;;;;;;;5014134;28;20030;-65
2022/01/02 08:22:20;;;;;;;62.43;46.37;;;;;;;;;;5000432;28;20061;-65
2022/01/02 08:24:46;;;;;;;65.00;43.97;;;;;;;;;;5000561;28;20032;-64
2022/01/02 08:27:12;;;;;;;70.67;46.87;;;;;;;;;;5013562;28;20100;-64
2022/01/02 08:29:38;;;;;;;68.67;47.27;;;;;;;;;;5013309;28;20133;-64
2022/01/02 08:32:04;;;;;;;71.83;50.23;;;;;;;;;;4997171;28;20029;-64
2022/01/02 08:34:30;;;;;;;73.47;48.67;;;;;;;;;;5012170;28;20049;-64
2022/01/02 08:36:56;;;;;;;71.93;48.00;;;;;;;;;;5013637;28;20590;-64
2022/01/02 08:39:22;;;;;;;66.03;46.27;;;;;;;;;;5013231;28;20026;-64
2022/01/02 08:41:48;;;;;;;65.60;45.77;;;;;;;;;;5014110;28;20022;-65
2022/01/02 08:44:14;;;;;;;66.40;45.50;;;;;;;;;;5012787;28;21979;-64
2022/01/02 08:46:40;;;;;;;63.03;43.23;;;;;;;;;;5013481;28;20595;-64
2022/01/02 08:49:18;;;;;;;60.93;41.53;;;;;;;;;;4995180;28;20045;-64
2022/01/02 08:51:44;;;;;;;61.30;42.50;;;;;;;;;;5013601;28;20100;-65
2022/01/02 08:54:10;;;;;;;59.20;43.30;;;;;;;;;;5013076;28;20030;-64
2022/01/02 08:56:36;;;;;;;59.50;41.63;;;;;;;;;;5013840;28;20022;-65
2022/01/02 08:59:02;;;;;;;59.63;42.07;;;;;;;;;;5013399;28;20030;-65
2022/01/02 09:01:28;;;;;;;57.57;41.43;;;;;;;;;;5014218;28;20022;-65
2022/01/02 09:03:54;;;;;;;60.00;42.67;;;;;;;;;;5013836;28;20038;-65
2022/01/02 09:06:20;;;;;;;61.03;42.10;;;;;;;;;;5013092;28;20030;-64
2022/01/02 09:08:46;;;;;;;63.97;41.77;;;;;;;;;;5016490;28;20041;-64
2022/01/02 09:11:12;;;;;;;61.33;41.60;;;;;;;;;;4998406;28;20048;-65
2022/01/02 09:13:38;;;;;;;59.90;42.13;;;;;;;;;;5013808;28;20419;-65
2022/01/02 09:16:04;;;;;;;58.37;39.70;;;;;;;;;;5005884;28;20034;-65
2022/01/02 09:18:33;;;;;;;60.73;40.83;;;;;;;;;;5004486;28;20037;-64
2022/01/02 09:20:59;;;;;;;63.83;41.17;;;;;;;;;;5011551;28;20414;-65
2022/01/02 09:23:25;;;;;;;55.50;40.67;;;;;;;;;;5011402;28;20027;-65
2022/01/02 09:25:51;;;;;;;60.03;42.57;;;;;;;;;;5012736;28;20061;-64
2022/01/02 09:28:17;;;;;;;61.73;42.10;;;;;;;;;;5012506;28;20026;-65
2022/01/02 09:30:43;;;;;;;62.77;42.30;;;;;;;;;;5008509;28;20050;-65
2022/01/02 09:33:10;;;;;;;64.00;41.90;;;;;;;;;;5013182;28;20050;-65
2022/01/02 09:35:38;;;;;;;63.70;43.03;;;;;;;;;;5012954;28;20121;-65
2022/01/02 09:38:05;;;;;;;60.80;42.83;;;;;;;;;;5012822;28;20045;-65
2022/01/02 09:40:32;;;;;;;62.27;42.53;;;;;;;;;;5010185;28;20033;-65
2022/01/02 09:42:59;;;;;;;61.93;43.87;;;;;;;;;;5016864;28;20460;-65
2022/01/02 09:45:25;;;;;;;63.57;44.13;;;;;;;;;;4994888;28;20032;-65
2022/01/02 09:47:51;;;;;;;65.70;44.37;;;;;;;;;;5012952;28;20033;-65
2022/01/02 09:50:18;;;;;;;64.47;44.20;;;;;;;;;;5012655;28;20121;-65
2022/01/02 09:52:45;;;;;;;64.87;45.00;;;;;;;;;;5013183;28;20064;-65
2022/01/02 09:55:11;;;;;;;66.40;45.57;;;;;;;;;;5012347;28;20026;-65
2022/01/02 09:57:42;;;;;;;66.50;46.23;;;;;;;;;;4995776;28;20391;-65
2022/01/02 10:06:15;;;;;;;67.73;45.60;;;;;;;;;;4998227;28;20041;-65
2022/01/02 10:08:41;;;;;;;75.30;49.23;;;;;;;;;;5010594;28;20041;-65
2022/01/02 10:11:15;;;;;;;70.50;48.90;;;;;;;;;;5015534;28;20025;-65
2022/01/02 10:13:55;;;;;;;69.63;47.97;;;;;;;;;;5016254;28;20028;-65
2022/01/02 10:16:26;;;;;;;79.73;50.97;;;;;;;;;;5013181;28;20133;-65
2022/01/02 10:18:54;;;;;;;74.33;48.57;;;;;;;;;;5012431;28;20109;-65
2022/01/02 10:21:46;;;;;;;75.47;49.20;;;;;;;;;;5013102;28;20042;-65
2022/01/02 10:24:21;;;;;;;74.80;49.43;;;;;;;;;;4970560;28;20034;-65
2022/01/02 10:26:47;;;;;;;;;;;;;;;;;;4993402;28;20034;-65
2022/01/02 10:29:14;;;;;;;69.43;48.47;;;;;;;;;;5012053;28;20382;-65
2022/01/02 10:31:41;;;;;;;77.00;50.73;;;;;;;;;;5010249;28;20033;-65
2022/01/02 10:34:07;;;;;;;72.63;48.27;;;;;;;;;;5012235;28;20438;-65
2022/01/02 10:36:34;;;;;;;71.00;48.97;;;;;;;;;;5013956;28;20117;-65
2022/01/02 10:39:00;;;;;;;69.10;49.13;;;;;;;;;;5011906;28;20029;-65
2022/01/02 10:41:33;;;;;;;66.57;48.00;;;;;;;;;;5012850;28;20030;-65
2022/01/02 10:44:16;;;;;;;70.60;47.90;;;;;;;;;;5010721;28;20483;-65
2022/01/02 10:47:02;;;;;;;66.97;46.73;;;;;;;;;;5013173;28;20041;-65
2022/01/02 10:49:46;;;;;;;68.53;48.70;;;;;;;;;;5017009;28;20550;-65
2022/01/02 10:52:18;;;;;;;68.63;48.10;;;;;;;;;;5011819;28;20562;-65
2022/01/02 10:54:44;;;;;;;65.17;46.23;;;;;;;;;;4995061;28;20036;-65
2022/01/02 10:57:10;;;;;;;64.53;44.40;;;;;;;;;;5006806;28;20080;-65
2022/01/02 11:05:45;;;;;;;65.33;45.30;;;;;;;;;;5007036;28;20152;-65
2022/01/02 11:08:12;;;;;;;65.13;45.53;;;;;;;;;;5021251;28;20030;-64
2022/01/02 11:10:38;;;;;;;64.70;44.47;;;;;;;;;;4996303;28;20033;-65
2022/01/02 11:13:06;;;;;;;71.27;45.87;;;;;;;;;;5014603;28;20022;-65
2022/01/02 11:15:32;;;;;;;69.57;47.80;;;;;;;;;;5016934;28;20111;-65
2022/01/02 11:17:59;;;;;;;70.70;46.47;;;;;;;;;;5019909;28;20030;-65
2022/01/02 11:20:27;;;;;;;70.73;46.63;;;;;;;;;;5015937;28;20029;-65
2022/01/02 11:22:59;;;;;;;70.30;47.37;;;;;;;;;;5015377;28;20034;-65
2022/01/02 11:25:25;;;;;;;69.60;45.60;;;;;;;;;;4996487;28;20045;-65
2022/01/02 11:27:58;;;;;;;68.13;46.83;;;;;;;;;;5012895;28;20062;-65
2022/01/02 11:30:30;;;;;;;72.60;48.23;;;;;;;;;;5014996;28;20037;-65
2022/01/02 11:33:00;;;;;;;73.80;47.97;;;;;;;;;;4995022;28;20029;-65
2022/01/02 11:35:27;;;;;;;77.53;50.50;;;;;;;;;;5014641;28;20026;-65
2022/01/02 11:37:56;;;;;;;71.30;47.60;;;;;;;;;;5014304;28;20508;-65
2022/01/02 11:40:42;;;;;;;73.93;48.60;;;;;;;;;;5014310;28;20026;-65
2022/01/02 11:43:08;;;;;;;74.40;46.50;;;;;;;;;;5014712;28;20022;-65
2022/01/02 11:45:41;;;;;;;80.77;51.33;;;;;;;;;;5014014;28;20032;-65
2022/01/02 11:48:29;;;;;;;79.43;49.90;;;;;;;;;;5017250;28;20022;-65
2022/01/02 11:50:55;;;;;;;77.87;50.17;;;;;;;;;;5012464;28;20369;-64
2022/01/02 11:53:23;;;;;;;77.83;48.67;;;;;;;;;;5014360;28;20105;-64
2022/01/02 11:55:50;;;;;;;74.40;47.87;;;;;;;;;;5016414;28;20141;-65
2022/01/02 11:58:35;;;;;;;75.10;48.93;;;;;;;;;;5002660;28;20387;-64
2022/01/02 12:01:01;;;;;;;69.60;47.58;;;;;;;;;;5015534;28;20191;-64
2022/01/02 12:03:39;;;;;;;75.67;47.27;;;;;;;;;;5013921;28;20054;-64
2022/01/02 12:06:42;;;;;;;76.03;49.70;;;;;;;;;;5014976;28;20026;-64
2022/01/02 12:09:44;;;;;;;73.07;48.50;;;;;;;;;;4902233;29;20075;-64
2022/01/02 12:12:10;;;;;;;74.53;49.43;;;;;;;;;;4916551;29;20502;-64
2022/01/02 12:14:52;;;;;;;71.53;48.53;;;;;;;;;;4964826;28;20038;-64
2022/01/02 12:17:23;;;;;;;66.27;45.83;;;;;;;;;;4984305;28;20018;-64
2022/01/02 12:20:05;;;;;;;64.60;44.13;;;;;;;;;;4974215;28;20027;-64
2022/01/02 12:22:41;;;;;;;65.97;44.57;;;;;;;;;;4975447;28;20568;-65
2022/01/02 12:25:17;;;;;;;63.87;45.00;;;;;;;;;;4975229;28;20490;-64
2022/01/02 12:27:55;;;;;;;66.77;44.33;;;;;;;;;;4976840;28;20554;-64
2022/01/02 12:30:21;;;;;;;59.33;41.03;;;;;;;;;;4971691;28;20050;-64
2022/01/02 12:32:47;;;;;;;63.80;41.97;;;;;;;;;;4974815;28;20019;-64
2022/01/02 12:35:14;;;;;;;59.83;42.50;;;;;;;;;;4970189;28;20034;-65
2022/01/02 12:37:40;;;;;;;62.77;43.20;;;;;;;;;;4974869;28;20023;-64
2022/01/02 12:40:13;;;;;;;64.13;43.60;;;;;;;;;;4974437;28;20034;-65
2022/01/02 12:42:39;;;;;;;59.17;42.63;;;;;;;;;;4975234;28;20043;-64
2022/01/02 12:45:06;;;;;;;65.07;45.80;;;;;;;;;;4981516;28;20031;-64
2022/01/02 12:47:32;;;;;;;60.33;43.30;;;;;;;;;;4973996;28;20042;-64
2022/01/02 12:49:58;;;;;;;58.17;42.77;;;;;;;;;;4974547;28;20373;-64
2022/01/02 12:52:25;;;;;;;58.70;42.63;;;;;;;;;;4974997;28;20027;-64
2022/01/02 12:54:57;;;;;;;60.10;41.07;;;;;;;;;;4973005;28;20089;-64
2022/01/02 12:57:23;;;;;;;61.77;43.23;;;;;;;;;;4960304;28;20027;-64
2022/01/02 12:59:50;;;;;;;60.33;41.97;;;;;;;;;;4974780;28;20031;-64
2022/01/02 13:02:16;;;;;;;59.20;43.97;;;;;;;;;;4975261;28;20030;-64
2022/01/02 13:04:43;;;;;;;55.27;38.63;;;;;;;;;;4974722;28;20031;-64
2022/01/02 13:07:12;;;;;;;55.17;38.70;;;;;;;;;;4994474;28;20129;-64
2022/01/02 13:09:51;;;;;;;52.85;37.85;;;;;;;;;;4978110;28;20047;-63
2022/01/02 13:12:22;;;;;;;57.60;38.55;;;;;;;;;;5013593;28;20041;-64
2022/01/02 13:14:49;;;;;;;52.40;37.28;;;;;;;;;;5010467;28;20033;-64
2022/01/02 13:17:17;;;;;;;51.78;36.50;;;;;;;;;;5013963;28;20030;-64
2022/01/02 13:19:49;;;;;;;51.72;36.28;;;;;;;;;;4994193;28;20079;-65
2022/01/02 13:22:15;;;;;;;54.90;39.47;;;;;;;;;;5013821;28;20026;-64
2022/01/02 13:24:41;;;;;;;54.67;38.80;;;;;;;;;;5005670;28;20026;-64
2022/01/02 13:27:07;;;;;;;52.42;35.95;;;;;;;;;;4994094;28;20033;-64
2022/01/02 13:29:34;;;;;;;47.83;35.50;;;;;;;;;;5005280;28;20041;-64
2022/01/02 13:32:21;;;;;;;46.92;34.90;;;;;;;;;;5013707;28;20081;-64
2022/01/02 13:35:04;;;;;;;48.92;35.40;;;;;;;;;;5012141;28;20041;-64
2022/01/02 13:37:44;;;;;;;47.40;35.08;;;;;;;;;;5013619;28;20041;-64
2022/01/02 13:40:21;;;;;;;49.17;34.35;;;;;;;;;;5012358;28;20030;-64
2022/01/02 13:42:50;;;;;;;44.60;32.90;;;;;;;;;;5013604;28;20128;-65
2022/01/02 13:45:30;;;;;;;46.92;32.95;;;;;;;;;;5013063;28;20026;-64
2022/01/02 13:47:57;;;;;;;49.92;34.95;;;;;;;;;;4997785;28;20032;-64
2022/01/02 13:50:36;;;;;;;44.55;33.10;;;;;;;;;;5031923;28;20119;-64
2022/01/02 13:53:23;;;;;;;47.03;34.60;;;;;;;;;;5025998;28;20113;-65
2022/01/02 13:55:51;;;;;;;41.45;31.55;;;;;;;;;;5013349;28;20033;-64
2022/01/02 13:58:24;;;;;;;47.13;33.58;;;;;;;;;;5011480;28;20113;-65
2022/01/02 14:00:57;;;;;;;46.75;32.58;;;;;;;;;;5013509;28;20036;-65
2022/01/02 14:03:27;;;;;;;47.50;33.85;;;;;;;;;;5009838;28;20038;-65
2022/01/02 14:05:53;;;;;;;50.30;34.08;;;;;;;;;;5031411;28;20037;-65
2022/01/02 14:08:20;;;;;;;46.22;33.58;;;;;;;;;;5018634;28;20026;-65
2022/01/02 14:10:46;;;;;;;51.17;35.72;;;;;;;;;;5013049;28;20185;-65
2022/01/02 14:13:15;;;;;;;49.45;34.33;;;;;;;;;;5012581;28;20483;-65
2022/01/02 14:15:43;;;;;;;48.08;34.10;;;;;;;;;;5013131;28;20109;-65
2022/01/02 14:18:09;;;;;;;48.10;33.78;;;;;;;;;;5011840;28;20030;-65
2022/01/02 14:20:37;;;;;;;48.50;34.30;;;;;;;;;;5013192;28;20387;-65
2022/01/02 14:23:06;;;;;;;50.17;34.33;;;;;;;;;;5012200;28;20088;-65
2022/01/02 14:25:33;;;;;;;52.22;34.58;;;;;;;;;;4995425;28;20632;-64
2022/01/02 14:28:00;;;;;;;48.83;34.15;;;;;;;;;;5011477;28;20369;-64
2022/01/02 14:30:26;;;;;;;46.97;34.28;;;;;;;;;;5011375;28;20480;-63
2022/01/02 14:32:52;;;;;;;49.40;35.28;;;;;;;;;;5011518;28;20026;-63
2022/01/02 14:35:19;;;;;;;47.42;34.42;;;;;;;;;;5008326;28;20038;-64
2022/01/02 14:37:47;;;;;;;48.70;33.80;;;;;;;;;;4995918;28;20033;-64
2022/01/02 14:40:14;;;;;;;50.10;35.17;;;;;;;;;;5011448;28;20029;-64
2022/01/02 14:42:40;;;;;;;48.72;33.45;;;;;;;;;;5011006;28;20022;-64
2022/01/02 14:45:06;;;;;;;49.92;34.22;;;;;;;;;;5014800;28;20037;-64
2022/01/02 14:47:33;;;;;;;49.80;34.15;;;;;;;;;;5016403;28;20079;-64
2022/01/02 14:50:03;;;;;;;50.15;35.03;;;;;;;;;;5015931;28;20030;-64
2022/01/02 14:52:30;;;;;;;52.90;36.45;;;;;;;;;;5016157;28;20157;-64
2022/01/02 14:54:56;;;;;;;51.40;36.72;;;;;;;;;;5026515;28;20026;-64
2022/01/02 14:57:22;;;;;;;55.13;37.05;;;;;;;;;;5034111;28;20032;-64
2022/01/02 14:59:49;;;;;;;51.03;36.95;;;;;;;;;;5015458;28;20036;-64
2022/01/02 15:02:16;;;;;;;59.72;36.28;;;;;;;;;;5016297;28;20494;-64
2022/01/02 15:04:42;;;;;;;55.45;36.10;;;;;;;;;;5000383;28;20034;-64
2022/01/02 15:07:08;;;;;;;54.72;36.70;;;;;;;;;;5016268;28;20495;-64
2022/01/02 15:09:34;;;;;;;52.25;36.17;;;;;;;;;;5019826;28;20033;-64
2022/01/02 15:12:00;;;;;;;53.63;36.15;;;;;;;;;;4998174;28;20124;-64
2022/01/02 15:14:26;;;;;;;54.80;36.92;;;;;;;;;;5008088;28;20113;-64
2022/01/02 15:16:53;;;;;;;58.15;37.10;;;;;;;;;;4997270;28;20085;-63
2022/01/02 15:19:21;;;;;;;53.20;34.90;;;;;;;;;;5015132;28;20080;-64